Time;durP1;ratioP1;P1;durP2;ratioP2;P2;SDS_P1;SDS_P2;PMS_P1;PMS_P2;Temp;Humidity;BMP_temperature;BMP_pressure;BME280_temperature;BME280_humidity;BME280_pressure;Samples;Min_cycle;Max_cycle;Signal;HPM_P1;HPM_P2
2023/01/06 00:01:22;;;;;;;5.80;4.60;;;;;;;19.69;50.43;101898.66;5020595;28;19921;-46
2023/01/06 00:03:51;;;;;;;6.13;5.45;;;;;;;19.70;51.37;101897.69;5035852;28;20037;-48
2023/01/06 00:06:26;;;;;;;8.43;5.40;;;;;;;19.70;51.49;101894.16;5036179;28;20425;-46
2023/01/06 00:08:54;;;;;;;5.72;5.13;;;;;;;19.69;51.62;101904.03;5035697;28;20068;-48
2023/01/06 00:11:22;;;;;;;8.50;5.32;;;;;;;19.70;51.51;101900.38;5036118;28;20057;-47
2023/01/06 00:13:50;;;;;;;6.28;4.95;;;;;;;19.69;51.80;101901.38;5035328;28;20052;-49
2023/01/06 00:16:19;;;;;;;6.45;4.90;;;;;;;19.68;51.65;101894.25;5035712;28;20387;-47
2023/01/06 00:18:46;;;;;;;6.40;5.13;;;;;;;19.69;51.58;101895.13;5035574;28;20045;-46
2023/01/06 00:21:14;;;;;;;8.30;5.15;;;;;;;19.68;51.62;101905.00;5020165;28;20408;-46
2023/01/06 00:23:41;;;;;;;5.95;4.82;;;;;;;19.68;51.59;101905.00;5015520;28;20061;-46
2023/01/06 00:26:10;;;;;;;6.85;5.30;;;;;;;19.68;51.69;101910.38;5015355;28;20432;-47
2023/01/06 00:28:37;;;;;;;6.47;5.20;;;;;;;19.68;51.75;101912.19;5015829;28;20052;-48
2023/01/06 00:31:09;;;;;;;5.82;4.80;;;;;;;19.67;51.74;101915.84;5027591;28;20095;-48
2023/01/06 00:33:40;;;;;;;5.65;5.07;;;;;;;19.67;51.66;101924.78;5035099;28;20037;-51
2023/01/06 00:36:09;;;;;;;6.85;5.40;;;;;;;19.67;51.78;101918.53;5034556;28;20064;-47
2023/01/06 00:38:37;;;;;;;8.20;4.80;;;;;;;19.67;51.78;101913.16;5034206;28;20132;-48
2023/01/06 00:42:02;;;;;;;6.07;5.00;;;;;;;19.67;51.61;101911.34;5035135;28;20546;-48
2023/01/06 00:43:55;;;;;;;7.47;4.57;;;;;;;19.67;51.49;101918.53;5035448;28;20041;-51
2023/01/06 00:46:25;;;;;;;6.00;5.18;;;;;;;19.66;51.57;101916.84;5034734;28;20056;-48
2023/01/06 00:48:53;;;;;;;6.43;4.88;;;;;;;19.66;51.30;101927.56;5034172;28;20049;-47
2023/01/06 00:51:35;;;;;;;5.85;4.88;;;;;;;19.65;51.29;101932.09;5035174;28;20068;-48
2023/01/06 00:54:03;;;;;;;6.70;5.05;;;;;;;19.64;51.36;101924.97;5034894;28;20046;-47
2023/01/06 00:56:30;;;;;;;5.50;4.93;;;;;;;19.65;51.15;101926.72;5034646;28;20064;-46
2023/01/06 00:58:58;;;;;;;6.35;5.00;;;;;;;19.66;51.53;101935.63;5034868;28;20510;-46
2023/01/06 01:01:25;;;;;;;5.68;4.72;;;;;;;19.66;51.34;101932.94;5034574;28;20049;-46
2023/01/06 01:03:52;;;;;;;4.90;4.40;;;;;;;19.66;51.12;101941.00;5034780;28;20086;-48
2023/01/06 01:06:20;;;;;;;4.40;4.00;;;;;;;19.65;51.25;101942.84;5035154;28;20045;-46
2023/01/06 01:08:53;;;;;;;5.43;4.60;;;;;;;19.64;51.24;101938.41;5034917;28;20061;-46
2023/01/06 01:14:09;;;;;;;5.38;4.45;;;;;;;19.65;51.04;101942.84;5033484;28;20060;-48
2023/01/06 01:16:36;;;;;;;5.65;4.60;;;;;;;19.65;51.16;101939.28;5033562;28;20057;-46
2023/01/06 01:19:04;;;;;;;5.68;4.65;;;;;;;19.64;51.14;101938.41;5034748;28;20375;-46
2023/01/06 01:21:32;;;;;;;5.43;4.80;;;;;;;19.65;51.23;101942.84;5031844;28;20042;-48
2023/01/06 01:23:59;;;;;;;5.45;4.20;;;;;;;19.64;51.11;101935.72;5033770;28;20052;-48
2023/01/06 01:26:27;;;;;;;5.88;4.90;;;;;;;19.64;51.26;101946.47;5034767;28;20057;-47
2023/01/06 01:28:56;;;;;;;6.90;4.63;;;;;;;19.64;51.16;101935.72;5034288;28;20048;-46
2023/01/06 01:31:23;;;;;;;5.65;4.80;;;;;;;19.64;51.03;101941.09;5034352;28;20049;-51
2023/01/06 01:33:50;;;;;;;5.25;4.72;;;;;;;19.64;51.03;101941.09;5032939;28;20054;-46
2023/01/06 01:36:20;;;;;;;5.28;4.18;;;;;;;19.64;51.12;101938.41;5034189;28;20052;-46
2023/01/06 01:38:48;;;;;;;5.82;4.40;;;;;;;19.64;51.17;101941.09;5034526;28;20506;-46
2023/01/06 01:41:20;;;;;;;4.90;4.07;;;;;;;19.64;51.00;101949.16;5034037;28;20061;-47
2023/01/06 01:43:50;;;;;;;5.70;4.20;;;;;;;19.64;51.11;101949.16;5032030;28;20064;-46
2023/01/06 01:46:23;;;;;;;5.25;4.28;;;;;;;19.64;50.85;101934.88;5033013;28;20045;-46
2023/01/06 01:48:55;;;;;;;5.80;4.18;;;;;;;19.64;51.09;101940.25;5033053;28;20065;-47
2023/01/06 01:51:28;;;;;;;5.40;4.60;;;;;;;19.64;51.06;101941.09;5034152;28;20061;-47
2023/01/06 01:53:59;;;;;;;7.72;4.20;;;;;;;19.63;50.92;101934.00;5032904;28;20076;-47
2023/01/06 01:56:30;;;;;;;6.47;4.68;;;;;;;19.63;50.91;101931.31;5034025;28;20045;-46
2023/01/06 01:59:04;;;;;;;5.50;4.95;;;;;;;19.63;51.01;101923.28;5032748;28;20049;-46
2023/01/06 02:01:31;;;;;;;5.25;4.35;;;;;;;19.63;50.95;101917.03;5033601;28;20048;-46
2023/01/06 02:04:00;;;;;;;4.97;4.38;;;;;;;19.62;51.07;101916.19;5032642;28;20054;-46
2023/01/06 02:06:28;;;;;;;5.60;4.68;;;;;;;19.63;50.99;101925.09;5032519;28;20045;-47
2023/01/06 02:09:23;;;;;;;5.75;4.57;;;;;;;19.63;51.07;101920.59;5031721;28;20057;-46
2023/01/06 02:11:51;;;;;;;4.72;4.13;;;;;;;19.62;50.82;101921.56;5033646;28;20057;-46
2023/01/06 02:14:23;;;;;;;5.10;4.13;;;;;;;19.61;50.63;101914.47;5032142;28;20057;-46
2023/01/06 02:17:09;;;;;;;5.18;4.07;;;;;;;19.61;50.66;101919.84;5033186;28;20376;-47
2023/01/06 02:19:36;;;;;;;5.30;4.00;;;;;;;19.61;50.65;101919.84;5033579;28;20061;-49
2023/01/06 02:22:08;;;;;;;6.78;4.10;;;;;;;19.63;51.05;101919.72;5028681;28;20563;-46
2023/01/06 02:25:12;;;;;;;4.63;3.90;;;;;;;19.61;50.61;101909.09;5032742;28;20033;-49
2023/01/06 02:28:16;;;;;;;4.97;4.25;;;;;;;19.61;50.74;101900.16;5033485;28;20045;-46
2023/01/06 02:31:14;;;;;;;4.57;4.00;;;;;;;19.61;50.67;101906.41;5032382;28;20061;-46
2023/01/06 02:34:25;;;;;;;4.63;4.10;;;;;;;19.62;50.74;101915.31;5031947;28;20396;-47
2023/01/06 02:37:23;;;;;;;5.78;4.38;;;;;;;19.61;50.74;101902.84;5024636;28;20053;-47
2023/01/06 02:40:47;;;;;;;5.38;4.28;;;;;;;19.61;50.65;101909.09;5033342;28;20403;-48
2023/01/06 02:43:44;;;;;;;4.15;3.72;;;;;;;19.61;50.92;101902.84;5014139;28;20495;-46
2023/01/06 02:46:26;;;;;;;4.47;3.75;;;;;;;19.61;50.77;101902.84;5027180;28;20052;-50
2023/01/06 02:49:09;;;;;;;6.20;4.60;;;;;;;19.60;50.58;101899.25;5014306;28;20611;-46
2023/01/06 02:51:50;;;;;;;5.07;4.38;;;;;;;19.61;50.88;101900.16;5030575;28;20079;-47
2023/01/06 02:54:30;;;;;;;6.20;4.13;;;;;;;19.60;50.70;101901.94;5017141;28;20399;-49
2023/01/06 02:57:10;;;;;;;5.35;4.55;;;;;;;19.61;50.70;101892.09;5037597;28;20048;-47
2023/01/06 02:59:47;;;;;;;5.00;4.13;;;;;;;19.61;50.86;101894.78;5021000;28;20411;-47
2023/01/06 03:02:17;;;;;;;5.65;4.47;;;;;;;19.60;51.06;101891.22;5020804;28;20049;-49
2023/01/06 03:04:47;;;;;;;5.53;3.75;;;;;;;19.60;50.88;101891.22;5020651;28;20057;-46
2023/01/06 03:07:19;;;;;;;6.60;4.57;;;;;;;19.60;51.29;101888.53;5021161;28;20058;-46
2023/01/06 03:09:51;;;;;;;6.28;4.38;;;;;;;19.60;50.88;101885.84;5019854;28;20419;-46
2023/01/06 03:12:43;;;;;;;5.22;4.43;;;;;;;19.60;51.05;101884.97;5036927;28;20054;-49
2023/01/06 03:15:12;;;;;;;;;;;;;;;19.60;51.16;101884.97;5019127;28;20046;-46
2023/01/06 03:17:39;;;;;;;6.07;4.50;;;;;;;19.60;50.98;101883.16;5035120;28;19922;-45
2023/01/06 03:20:07;;;;;;;5.43;4.43;;;;;;;19.60;50.99;101880.47;5019735;28;20056;-47
2023/01/06 03:22:37;;;;;;;6.35;5.20;;;;;;;19.59;51.07;101881.44;5018485;28;20389;-47
2023/01/06 03:25:07;;;;;;;5.57;4.38;;;;;;;19.60;50.86;101883.16;5017068;28;20057;-46
2023/01/06 03:27:35;;;;;;;6.70;4.93;;;;;;;19.61;50.91;101886.72;5017867;28;20484;-48
2023/01/06 03:30:08;;;;;;;5.82;4.78;;;;;;;19.60;50.96;101880.47;5018967;28;20066;-50
2023/01/06 03:32:47;;;;;;;4.75;4.25;;;;;;;19.60;51.00;101884.97;5018183;28;20053;-46
2023/01/06 03:35:40;;;;;;;6.97;5.05;;;;;;;19.58;51.16;101887.78;5018503;28;20053;-47
2023/01/06 03:38:17;;;;;;;;;;;;;;;19.59;51.16;101891.31;5019158;28;20061;-46
2023/01/06 03:40:58;;;;;;;5.45;4.72;;;;;;;19.59;51.22;101889.50;5018398;28;19921;-46
2023/01/06 03:43:30;;;;;;;5.90;4.82;;;;;;;19.60;51.00;101884.97;5018427;28;20065;-45
2023/01/06 03:46:33;;;;;;;5.85;4.50;;;;;;;19.58;51.10;101889.63;5018033;28;20057;-46
2023/01/06 03:49:29;;;;;;;5.57;4.85;;;;;;;19.58;51.09;101887.78;5018294;28;20549;-47
2023/01/06 03:52:11;;;;;;;6.22;4.65;;;;;;;19.58;51.07;101890.47;5018801;28;20057;-46
2023/01/06 03:54:42;;;;;;;6.13;4.83;;;;;;;19.58;51.15;101882.41;5019483;28;20069;-47
2023/01/06 03:57:24;;;;;;;5.85;5.22;;;;;;;19.58;51.21;101882.41;5018062;28;20076;-46
2023/01/06 04:00:05;;;;;;;5.63;4.50;;;;;;;19.57;50.96;101886.06;5018415;28;20053;-45
2023/01/06 04:02:40;;;;;;;7.10;4.80;;;;;;;19.59;51.06;101880.59;5041184;28;20065;-45
2023/01/06 04:05:14;;;;;;;7.15;4.60;;;;;;;19.58;51.07;101879.72;5035977;28;20053;-45
2023/01/06 04:07:45;;;;;;;5.50;4.70;;;;;;;19.59;51.26;101872.53;5035315;28;20049;-46
2023/01/06 04:10:16;;;;;;;8.93;5.20;;;;;;;19.58;51.15;101871.66;5034193;28;20084;-48
2023/01/06 04:12:47;;;;;;;6.35;5.13;;;;;;;19.58;51.12;101881.56;5034973;28;20053;-50
2023/01/06 04:15:23;;;;;;;6.25;4.82;;;;;;;19.58;51.12;101882.41;5034847;28;20207;-47
2023/01/06 04:17:53;;;;;;;5.65;4.88;;;;;;;19.58;51.10;101879.72;5034831;28;20049;-51
2023/01/06 04:20:25;;;;;;;5.35;4.28;;;;;;;19.58;51.09;101892.31;5035614;28;20045;-47
2023/01/06 04:22:59;;;;;;;4.90;4.40;;;;;;;19.57;51.10;101879.81;5034372;28;20061;-50
2023/01/06 04:25:32;;;;;;;;;;;;;;;19.57;51.09;101886.06;5016376;28;20407;-48
2023/01/06 04:28:07;;;;;;;5.95;4.95;;;;;;;19.58;51.29;101889.63;5016129;28;20388;-47
2023/01/06 04:30:34;;;;;;;6.70;5.20;;;;;;;19.57;51.18;101886.06;5014441;28;20539;-46
2023/01/06 04:33:02;;;;;;;7.03;5.05;;;;;;;19.57;51.18;101896.81;5014994;28;20050;-48
2023/01/06 04:35:30;;;;;;;5.70;4.78;;;;;;;19.57;51.07;101896.81;5015615;28;20369;-47
2023/01/06 04:38:02;;;;;;;6.60;4.97;;;;;;;19.57;51.10;101899.50;5015132;28;20073;-48
2023/01/06 04:40:29;;;;;;;5.88;4.55;;;;;;;19.58;51.25;101911.09;5015505;28;20061;-46
2023/01/06 04:43:06;;;;;;;6.32;5.20;;;;;;;19.57;51.20;101902.19;5015254;28;20054;-47
2023/01/06 04:45:34;;;;;;;5.85;4.80;;;;;;;19.57;51.14;101901.31;5016918;28;20049;-52
2023/01/06 04:48:01;;;;;;;7.10;5.15;;;;;;;19.57;51.08;101910.25;5035039;28;20053;-46
2023/01/06 04:50:28;;;;;;;5.22;4.53;;;;;;;19.57;51.25;101907.56;5033545;28;20061;-47
2023/01/06 04:52:56;;;;;;;5.40;4.80;;;;;;;19.57;51.24;101896.81;5035081;28;20068;-48
2023/01/06 04:55:23;;;;;;;6.30;4.82;;;;;;;19.57;51.45;101918.31;5035100;28;20056;-46
2023/01/06 04:57:51;;;;;;;5.10;4.57;;;;;;;19.57;51.52;101929.06;5035091;28;20056;-46
2023/01/06 05:00:18;;;;;;;5.30;4.28;;;;;;;19.56;51.55;101916.56;5035456;28;20045;-46
2023/01/06 05:02:46;;;;;;;5.93;4.82;;;;;;;19.56;51.63;101908.50;5034646;28;20045;-47
2023/01/06 05:05:14;;;;;;;6.82;5.32;;;;;;;19.56;51.72;101908.50;5034872;28;20502;-47
2023/01/06 05:07:41;;;;;;;5.57;4.65;;;;;;;19.56;51.53;101908.50;5035292;28;20045;-50
2023/01/06 05:10:09;;;;;;;6.88;4.53;;;;;;;19.57;51.63;101910.25;5034309;28;20053;-48
2023/01/06 05:12:37;;;;;;;7.75;4.57;;;;;;;19.56;51.74;101916.56;5034340;28;20054;-51
2023/01/06 05:15:05;;;;;;;5.47;4.82;;;;;;;19.56;51.55;101905.81;5034805;28;20056;-47
2023/01/06 05:17:32;;;;;;;5.70;5.15;;;;;;;19.57;51.45;101907.56;5034245;28;20038;-48
2023/01/06 05:20:00;;;;;;;6.25;4.93;;;;;;;19.57;51.60;101909.34;5034060;28;20053;-48
2023/01/06 05:22:27;;;;;;;7.07;5.18;;;;;;;19.55;51.52;101914.84;5033253;28;20060;-50
2023/01/06 05:24:54;;;;;;;7.70;5.15;;;;;;;19.55;51.50;101920.22;5031591;28;20480;-49
2023/01/06 05:27:21;;;;;;;5.95;4.78;;;;;;;19.55;51.41;101928.28;5033350;28;20380;-49
2023/01/06 05:29:49;;;;;;;6.70;5.10;;;;;;;19.55;51.74;101922.91;5034331;28;20041;-46
2023/01/06 05:32:16;;;;;;;5.75;4.60;;;;;;;19.56;51.63;101930.00;5034844;28;20049;-50
2023/01/06 05:34:43;;;;;;;6.88;4.93;;;;;;;19.56;51.47;101942.56;5034465;28;20054;-50
2023/01/06 05:37:11;;;;;;;6.25;5.40;;;;;;;19.55;51.44;101936.34;5034379;28;20046;-47
2023/01/06 05:39:38;;;;;;;6.45;4.95;;;;;;;19.55;51.53;101944.41;5035428;28;20064;-45
2023/01/06 05:42:05;;;;;;;5.85;4.88;;;;;;;19.55;51.62;101947.09;5034053;28;20057;-48
2023/01/06 05:44:33;;;;;;;6.72;5.05;;;;;;;19.55;51.64;101952.47;5034184;28;20045;-49
2023/01/06 05:47:00;;;;;;;6.38;5.20;;;;;;;19.56;51.64;101951.47;5034389;28;20456;-47
2023/01/06 05:49:27;;;;;;;6.70;5.47;;;;;;;19.55;51.53;101955.13;5034143;28;20045;-47
2023/01/06 05:51:54;;;;;;;7.10;5.78;;;;;;;19.56;51.43;101947.94;5034078;28;20052;-48
2023/01/06 05:54:22;;;;;;;5.55;4.70;;;;;;;19.56;51.86;101953.31;5034603;28;20050;-49
2023/01/06 05:56:49;;;;;;;6.00;5.05;;;;;;;19.56;51.79;101959.53;5033673;28;20060;-51
2023/01/06 05:59:16;;;;;;;7.88;5.57;;;;;;;19.55;51.59;101959.66;5033911;28;20056;-46
2023/01/06 06:01:43;;;;;;;5.53;4.50;;;;;;;19.55;51.69;101968.56;5034048;28;20041;-49
2023/01/06 06:04:12;;;;;;;5.93;4.95;;;;;;;19.55;51.64;101962.34;5033963;28;20503;-46
2023/01/06 06:06:39;;;;;;;7.50;5.57;;;;;;;19.56;51.42;101974.81;5034035;28;20061;-50
2023/01/06 06:09:07;;;;;;;6.25;4.95;;;;;;;19.56;51.55;101969.44;5034116;28;20525;-46
2023/01/06 06:11:34;;;;;;;6.38;4.82;;;;;;;19.55;51.36;101983.84;5033688;28;20052;-47
2023/01/06 06:14:02;;;;;;;9.10;5.65;;;;;;;19.55;51.47;101982.00;5033618;28;20395;-51
2023/01/06 06:16:29;;;;;;;5.47;4.70;;;;;;;19.55;51.48;101984.69;5033519;28;20045;-46
2023/01/06 06:18:57;;;;;;;6.18;4.90;;;;;;;19.54;51.58;101980.28;5034144;28;20049;-48
2023/01/06 06:21:27;;;;;;;5.63;5.05;;;;;;;19.55;51.51;101984.69;5033625;28;20045;-46
2023/01/06 06:23:56;;;;;;;6.45;5.03;;;;;;;19.53;51.61;101989.31;5033563;28;20064;-49
2023/01/06 06:26:23;;;;;;;5.68;5.07;;;;;;;19.55;51.60;101989.19;5025816;28;20046;-50
2023/01/06 06:28:51;;;;;;;6.93;5.15;;;;;;;19.54;51.53;101996.41;5012244;28;20050;-50
2023/01/06 06:31:24;;;;;;;6.10;4.93;;;;;;;19.54;51.45;101998.22;5013674;28;20045;-48
2023/01/06 06:33:53;;;;;;;5.50;4.57;;;;;;;19.54;51.85;102011.66;5013586;28;20057;-48
2023/01/06 06:36:21;;;;;;;5.90;4.97;;;;;;;19.54;51.61;102003.59;5013329;28;20053;-47
2023/01/06 06:38:49;;;;;;;6.95;5.22;;;;;;;19.54;51.66;102004.47;5013516;28;20420;-46
2023/01/06 06:41:18;;;;;;;6.50;5.80;;;;;;;19.53;51.91;102002.75;5013712;28;20598;-48
2023/01/06 06:43:47;;;;;;;7.93;4.88;;;;;;;19.52;51.87;102001.88;5013497;28;20053;-46
2023/01/06 06:46:14;;;;;;;6.30;5.32;;;;;;;19.53;51.82;102000.06;5016687;28;20152;-49
2023/01/06 06:48:42;;;;;;;6.50;5.30;;;;;;;19.52;51.79;102012.59;5033585;28;20049;-52
2023/01/06 06:51:12;;;;;;;6.18;4.95;;;;;;;19.51;51.85;102013.56;5033219;28;20484;-46
2023/01/06 06:53:40;;;;;;;8.05;5.30;;;;;;;19.52;51.76;102017.13;5033377;28;20061;-47
2023/01/06 06:56:08;;;;;;;7.47;5.22;;;;;;;19.52;51.83;102023.34;5033507;28;20045;-49
2023/01/06 06:58:36;;;;;;;6.72;5.30;;;;;;;19.52;51.92;102023.34;5033006;28;20048;-47
2023/01/06 07:01:09;;;;;;;5.43;4.82;;;;;;;19.52;51.83;102027.88;5033190;28;20046;-48
2023/01/06 07:03:37;;;;;;;7.07;4.90;;;;;;;19.52;51.95;102033.25;5033392;28;20053;-46
2023/01/06 07:06:07;;;;;;;7.78;4.70;;;;;;;19.52;51.91;102035.91;5033050;28;20045;-48
2023/01/06 07:08:35;;;;;;;7.65;5.50;;;;;;;19.52;51.82;102034.09;5032976;28;20045;-46
2023/01/06 07:11:02;;;;;;;7.07;4.70;;;;;;;19.52;51.76;102038.59;5032996;28;20068;-46
2023/01/06 07:13:30;;;;;;;7.13;5.15;;;;;;;19.52;51.81;102044.84;5032651;28;20054;-46
2023/01/06 07:15:57;;;;;;;9.77;5.43;;;;;;;19.54;51.85;102046.59;5033008;28;20052;-51
2023/01/06 07:18:25;;;;;;;7.10;5.47;;;;;;;19.53;51.86;102048.41;5031512;28;20056;-49
2023/01/06 07:20:52;;;;;;;5.90;5.03;;;;;;;19.51;51.87;102043.13;5032606;28;20046;-49
2023/01/06 07:23:22;;;;;;;6.85;5.13;;;;;;;19.51;51.78;102040.44;5032264;28;20046;-49
2023/01/06 07:25:54;;;;;;;5.45;4.50;;;;;;;19.52;51.78;102047.53;5032208;28;20053;-47
2023/01/06 07:28:22;;;;;;;5.47;4.82;;;;;;;19.52;51.89;102041.28;5028444;28;20048;-47
2023/01/06 07:30:50;;;;;;;6.10;5.35;;;;;;;19.51;51.69;102045.81;5032174;28;20049;-48
2023/01/06 07:33:19;;;;;;;7.32;5.35;;;;;;;19.52;51.76;102052.03;5032516;28;20371;-48
2023/01/06 07:35:46;;;;;;;6.97;5.65;;;;;;;19.51;51.71;102051.19;5033126;28;20056;-51
2023/01/06 07:38:14;;;;;;;7.75;5.63;;;;;;;19.52;51.62;102060.09;5032838;28;20050;-50
2023/01/06 07:40:41;;;;;;;6.90;5.20;;;;;;;19.51;51.72;102053.00;5033044;28;20049;-48
2023/01/06 07:43:10;;;;;;;6.68;5.38;;;;;;;19.51;51.94;102059.25;5036865;28;20056;-47
2023/01/06 07:45:37;;;;;;;7.20;5.80;;;;;;;19.51;51.90;102069.13;5036570;28;20395;-48
2023/01/06 07:48:04;;;;;;;5.90;4.68;;;;;;;19.50;51.70;102073.63;5036436;28;20376;-47
2023/01/06 07:50:32;;;;;;;6.05;5.10;;;;;;;19.51;51.83;102083.41;5036759;28;20046;-51
2023/01/06 07:53:01;;;;;;;5.97;5.38;;;;;;;19.50;51.53;102087.06;5036275;28;20068;-47
2023/01/06 07:55:29;;;;;;;4.65;4.10;;;;;;;19.50;51.90;102087.06;5036250;28;20061;-49
2023/01/06 07:57:57;;;;;;;7.35;5.85;;;;;;;19.51;51.94;102079.88;5035990;28;20049;-48
2023/01/06 08:00:25;;;;;;;6.78;5.50;;;;;;;19.50;51.81;102087.06;5036022;28;20384;-47
2023/01/06 08:02:53;;;;;;;6.78;5.25;;;;;;;19.50;51.92;102087.06;5036094;28;20045;-48
2023/01/06 08:05:20;;;;;;;6.38;5.38;;;;;;;19.50;51.71;102089.75;5036496;28;20041;-46
2023/01/06 08:07:47;;;;;;;5.53;4.40;;;;;;;19.49;51.83;102087.19;5036186;28;20053;-48
2023/01/06 08:10:15;;;;;;;6.38;4.93;;;;;;;19.50;51.83;102083.53;5035602;28;20056;-47
2023/01/06 08:12:42;;;;;;;6.28;5.38;;;;;;;19.49;51.77;102089.88;5031123;28;20052;-48
2023/01/06 08:15:10;;;;;;;9.05;8.05;;;;;;;19.48;48.62;102093.50;5021068;28;20046;-48
2023/01/06 08:17:37;;;;;;;10.95;9.77;;;;;;;19.33;46.08;102089.16;5018031;28;20507;-47
2023/01/06 08:20:05;;;;;;;9.50;8.48;;;;;;;19.20;47.50;102092.66;5036137;28;20041;-47
2023/01/06 08:22:32;;;;;;;8.35;6.75;;;;;;;19.19;49.46;102098.09;5035720;28;20463;-45
2023/01/06 08:25:00;;;;;;;6.72;6.03;;;;;;;19.22;50.92;102095.22;5028340;28;20048;-47
2023/01/06 08:27:27;;;;;;;6.97;5.85;;;;;;;19.25;51.38;102093.22;5016277;28;20396;-47
2023/01/06 08:29:54;;;;;;;6.57;5.78;;;;;;;19.28;51.37;102100.19;5020202;28;20033;-49
2023/01/06 08:32:22;;;;;;;7.50;5.20;;;;;;;19.30;51.26;102103.66;5035163;28;20056;-48
2023/01/06 08:34:49;;;;;;;9.15;6.88;;;;;;;19.33;51.02;102111.50;5034432;28;20053;-47
2023/01/06 08:37:16;;;;;;;6.45;5.10;;;;;;;19.35;50.83;102109.56;5035830;28;20045;-50
2023/01/06 08:39:44;;;;;;;6.60;5.40;;;;;;;19.37;50.90;102098.75;5035289;28;20060;-61
2023/01/06 08:42:12;;;;;;;10.25;6.25;;;;;;;19.40;50.88;102104.75;5035148;28;20064;-60
2023/01/06 08:44:40;;;;;;;8.57;5.97;;;;;;;19.40;50.68;102112.81;5035674;28;20064;-61
2023/01/06 08:47:08;;;;;;;8.07;5.68;;;;;;;19.42;50.71;102112.72;5041935;28;20403;-61
2023/01/06 08:49:35;;;;;;;7.72;5.85;;;;;;;19.43;50.64;102117.13;5034902;28;20045;-61
2023/01/06 08:52:02;;;;;;;7.47;6.35;;;;;;;19.43;50.80;102115.28;5045078;28;20411;-61
2023/01/06 08:54:30;;;;;;;7.88;6.30;;;;;;;19.45;50.99;102120.59;5048683;28;20535;-62
2023/01/06 08:56:57;;;;;;;7.25;5.95;;;;;;;19.45;50.78;102118.75;5044732;28;20056;-60
2023/01/06 08:59:24;;;;;;;7.25;6.55;;;;;;;19.45;50.80;102124.13;5041454;28;20042;-60
2023/01/06 09:01:51;;;;;;;7.80;6.43;;;;;;;19.46;50.03;102115.09;5044061;28;20483;-60
2023/01/06 09:04:19;;;;;;;7.97;6.15;;;;;;;19.44;50.59;102129.56;5050053;28;20037;-60
2023/01/06 09:06:46;;;;;;;7.10;6.15;;;;;;;19.45;50.88;102129.50;5043309;28;20060;-60
2023/01/06 09:09:13;;;;;;;7.88;6.00;;;;;;;19.47;50.98;102132.06;5042400;28;20041;-61
2023/01/06 09:11:42;;;;;;;7.38;5.97;;;;;;;19.45;51.04;102136.69;5050589;28;20052;-61
2023/01/06 09:14:12;;;;;;;9.07;5.80;;;;;;;19.47;50.90;102140.13;5038190;28;20041;-61
2023/01/06 09:16:40;;;;;;;10.35;6.15;;;;;;;19.47;50.99;102149.03;5047290;28;20045;-60
2023/01/06 09:19:09;;;;;;;8.00;6.32;;;;;;;19.48;51.09;102163.31;5046145;28;20041;-60
2023/01/06 09:21:37;;;;;;;6.80;5.57;;;;;;;19.48;51.23;102152.59;5039353;28;20056;-60
2023/01/06 09:24:04;;;;;;;8.85;6.35;;;;;;;19.48;51.06;102148.06;5051486;28;20399;-61
2023/01/06 09:26:33;;;;;;;9.07;6.72;;;;;;;19.49;51.28;102151.66;5047840;28;20038;-61
2023/01/06 09:29:00;;;;;;;7.30;6.30;;;;;;;19.49;51.38;102154.34;5035985;28;20061;-60
2023/01/06 09:31:27;;;;;;;8.10;6.35;;;;;;;19.50;51.46;102156.91;5014498;28;20049;-60
2023/01/06 09:33:55;;;;;;;7.75;5.97;;;;;;;19.50;51.21;102164.09;5048387;28;20052;-61
2023/01/06 09:36:22;;;;;;;10.25;6.20;;;;;;;19.51;51.03;102161.31;5022905;28;20041;-62
2023/01/06 09:38:53;;;;;;;11.40;7.25;;;;;;;19.51;51.19;102160.44;5025927;28;20053;-62
2023/01/06 09:41:38;;;;;;;10.50;7.32;;;;;;;19.51;51.09;102155.06;5031631;28;20411;-61
2023/01/06 09:44:19;;;;;;;8.15;6.05;;;;;;;19.51;50.98;102152.38;5029154;28;20415;-61
2023/01/06 09:46:50;;;;;;;9.67;6.50;;;;;;;19.52;51.30;102156.78;5045193;28;20053;-61
2023/01/06 09:49:37;;;;;;;7.88;6.38;;;;;;;19.52;51.12;102162.16;5045890;28;20270;-56
2023/01/06 09:52:28;;;;;;;9.55;6.80;;;;;;;19.54;51.54;102157.56;5035827;28;20041;-57
2023/01/06 09:55:04;;;;;;;8.15;5.68;;;;;;;19.56;51.33;102161.00;5043769;28;20042;-54
2023/01/06 09:57:39;;;;;;;8.02;6.40;;;;;;;19.58;51.11;102155.53;5037626;28;20057;-54
2023/01/06 10:00:30;;;;;;;8.90;5.80;;;;;;;19.59;51.48;102165.31;5036145;28;20048;-56
2023/01/06 10:02:57;;;;;;;10.02;8.13;;;;;;;19.59;50.51;102163.50;5045343;28;20414;-55
2023/01/06 10:05:30;;;;;;;16.15;11.05;;;;;;;19.57;48.82;102154.69;5039256;28;20052;-56
2023/01/06 10:08:09;;;;;;;13.10;10.57;;;;;;;19.57;48.98;102156.47;5050269;28;20490;-58
2023/01/06 10:11:08;;;;;;;16.67;11.27;;;;;;;19.56;49.11;102158.31;5040631;28;20383;-57
2023/01/06 10:13:55;;;;;;;10.98;9.10;;;;;;;19.56;50.28;102155.63;5043776;28;20056;-56
2023/01/06 10:16:51;;;;;;;13.55;10.18;;;;;;;19.57;49.92;102154.69;5034799;28;20049;-57
2023/01/06 10:19:29;;;;;;;12.23;7.70;;;;;;;19.61;50.86;102152.66;5039505;28;20057;-53
2023/01/06 10:21:59;;;;;;;11.80;8.38;;;;;;;19.67;50.55;102144.22;5035773;28;20049;-54
2023/01/06 10:24:40;;;;;;;14.63;7.75;;;;;;;19.68;50.11;102146.78;5034799;28;20052;-59
2023/01/06 10:27:25;;;;;;;8.20;7.07;;;;;;;19.69;49.85;102137.78;5033026;28;20056;-58
2023/01/06 10:29:55;;;;;;;10.38;7.15;;;;;;;19.69;50.05;102145.00;5031278;28;20041;-56
2023/01/06 10:32:27;;;;;;;9.98;7.05;;;;;;;19.69;50.02;102137.78;5022406;28;20063;-57
2023/01/06 10:34:55;;;;;;;9.63;8.07;;;;;;;19.68;49.90;102130.66;5042911;28;20052;-58
2023/01/06 10:37:32;;;;;;;11.23;7.65;;;;;;;19.69;50.24;102131.56;5040537;28;20053;-58
2023/01/06 10:40:18;;;;;;;10.05;7.68;;;;;;;19.68;50.18;102133.34;5048540;28;20045;-58
2023/01/06 10:42:55;;;;;;;9.43;6.68;;;;;;;19.70;50.35;102135.97;5036540;28;20395;-56
2023/01/06 10:45:32;;;;;;;10.45;7.38;;;;;;;19.69;50.77;102128.88;5033101;28;20049;-54
2023/01/06 10:48:01;;;;;;;8.52;7.20;;;;;;;19.70;50.34;102127.91;5045637;28;20049;-58
2023/01/06 10:50:28;;;;;;;10.65;7.60;;;;;;;19.70;50.35;102127.91;5044595;28;20368;-56
2023/01/06 10:52:55;;;;;;;9.95;8.13;;;;;;;19.70;49.95;102125.22;5042886;28;20049;-52
2023/01/06 10:55:45;;;;;;;11.43;7.75;;;;;;;19.69;50.21;102121.66;5046012;28;20056;-50
2023/01/06 10:58:34;;;;;;;10.93;8.05;;;;;;;19.68;50.05;102114.53;5020834;28;20108;-54
2023/01/06 11:01:21;;;;;;;11.55;7.80;;;;;;;19.69;49.99;102110.91;5042692;28;20056;-53
2023/01/06 11:04:03;;;;;;;9.93;7.72;;;;;;;19.69;50.15;102113.59;5049208;28;20379;-55
2023/01/06 11:06:31;;;;;;;8.15;7.25;;;;;;;19.69;50.14;102113.59;5038978;28;20041;-56
2023/01/06 11:09:05;;;;;;;13.77;8.10;;;;;;;19.69;49.95;102116.28;5042622;28;20042;-53
2023/01/06 11:11:32;;;;;;;11.88;8.10;;;;;;;19.69;49.83;102113.59;5047968;28;20053;-54
2023/01/06 11:14:04;;;;;;;10.07;8.20;;;;;;;19.69;49.91;102102.84;5036344;28;20052;-57
2023/01/06 11:16:34;;;;;;;11.63;7.90;;;;;;;19.69;49.58;102105.53;5050084;28;20045;-56
2023/01/06 11:19:04;;;;;;;11.05;7.25;;;;;;;19.69;49.91;102105.53;5047207;28;20049;-55
2023/01/06 11:21:45;;;;;;;10.45;8.48;;;;;;;19.70;50.14;102103.72;5041515;28;20053;-57
2023/01/06 11:24:24;;;;;;;11.93;7.85;;;;;;;19.70;50.34;102101.88;5024121;28;20045;-58
2023/01/06 11:26:53;;;;;;;11.10;8.57;;;;;;;19.70;49.77;102101.88;5047503;28;20483;-57
2023/01/06 11:29:34;;;;;;;12.15;7.82;;;;;;;19.72;50.43;102104.47;5036858;28;20484;-52
2023/01/06 11:32:15;;;;;;;10.52;7.00;;;;;;;19.72;50.19;102093.72;5048843;28;20541;-55
2023/01/06 11:34:51;;;;;;;9.25;7.95;;;;;;;19.71;50.01;102095.53;5061938;28;20052;-53
2023/01/06 11:37:39;;;;;;;8.95;7.22;;;;;;;19.72;49.85;102094.56;5063715;28;20056;-57
2023/01/06 11:40:25;;;;;;;8.45;7.45;;;;;;;19.73;49.60;102085.56;5070082;28;20044;-57
2023/01/06 11:42:58;;;;;;;9.63;7.70;;;;;;;19.72;50.08;102083.81;5054144;28;20056;-55
2023/01/06 11:45:28;;;;;;;;;;;;;;;19.73;50.26;102082.03;5062838;28;20063;-54
2023/01/06 11:47:56;;;;;;;9.38;7.57;;;;;;;19.74;50.18;102081.06;5072206;28;19920;-55
2023/01/06 11:50:23;;;;;;;9.35;7.18;;;;;;;19.73;49.85;102080.19;5060548;28;20037;-52